createdAt,value
2023-02-08T00:09:47.282Z,-1.29
2023-02-08T00:23:59.635Z,-1.49
2023-02-08T00:38:06.977Z,-1.69
2023-02-08T00:52:17.266Z,-1.88
2023-02-08T01:06:28.772Z,-2.25
2023-02-08T01:20:39.330Z,-2.67
2023-02-08T01:34:44.087Z,-3
2023-02-08T01:48:57.476Z,-2.45
2023-02-08T02:03:03.012Z,-2.02
2023-02-08T02:17:15.532Z,-2
2023-02-08T02:31:21.281Z,-2.13
2023-02-08T02:45:31.470Z,-2.18
2023-02-08T02:59:43.464Z,-2.07
2023-02-08T03:13:52.198Z,-2.06
2023-02-08T03:28:02.720Z,-2.17
2023-02-08T03:42:13.734Z,-2.21
2023-02-08T04:10:33.806Z,-2.25
2023-02-08T04:24:44.649Z,-2.17
2023-02-08T04:38:54.729Z,-2.23
2023-02-08T04:53:03.871Z,-2.24
2023-02-08T05:07:15.294Z,-2.33
2023-02-08T05:21:27.185Z,-2.38
2023-02-08T05:35:31.903Z,-2.33
2023-02-08T05:49:43.221Z,-2.41
2023-02-08T06:03:51.227Z,-2.46
2023-02-08T06:18:01.842Z,-2.51
2023-02-08T06:32:11.478Z,-2.62
2023-02-08T06:46:22.682Z,-2.7
2023-02-08T07:00:31.415Z,-2.71
2023-02-08T07:14:43.402Z,-2.66
2023-02-08T07:28:55.954Z,-2.65
2023-02-08T07:43:04.916Z,-2.6
2023-02-08T07:57:16.183Z,-2.58
2023-02-08T08:11:27.822Z,-2.37
2023-02-08T08:25:39.297Z,-2.1
2023-02-08T08:39:49.430Z,-1.79
2023-02-08T08:54:00.052Z,-1.41
2023-02-08T09:08:07.244Z,-1.07
2023-02-08T09:22:18.061Z,-0.76
2023-02-08T09:36:32.608Z,-0.3
2023-02-08T09:50:41.043Z,0.15
2023-02-08T10:05:00.980Z,0.83
2023-02-08T10:07:52.794Z,1.01
2023-02-08T10:17:24.570Z,1.29
2023-02-08T10:26:58.257Z,1.47
2023-02-08T10:36:31.282Z,1.59
2023-02-08T10:46:02.995Z,1.66
2023-02-08T10:55:36.735Z,1.89
2023-02-08T11:05:09.893Z,1.99
2023-02-08T11:14:47.314Z,2.20
2023-02-08T11:24:17.204Z,2.42
2023-02-08T11:33:49.938Z,2.49
2023-02-08T11:34:52.361Z,2.56
2023-02-08T11:44:25.310Z,2.71
2023-02-08T11:45:27.733Z,2.73
2023-02-08T11:55:02.442Z,2.89
2023-02-08T11:56:04.729Z,2.92
2023-02-08T11:57:07.186Z,3.00
2023-02-08T11:58:11.234Z,3.06
2023-02-08T11:59:13.495Z,3.11
2023-02-08T12:00:17.459Z,3.16
2023-02-08T12:09:47.537Z,3.13
2023-02-08T12:19:21.204Z,3.36
2023-02-08T12:20:23.639Z,3.39
2023-02-08T12:21:26.127Z,3.48
2023-02-08T12:22:28.533Z,3.55
2023-02-08T12:23:30.908Z,3.61
2023-02-08T12:24:33.327Z,3.60
2023-02-08T12:25:37.298Z,3.67
2023-02-08T12:26:41.198Z,3.72
2023-02-08T12:27:43.527Z,3.75
2023-02-08T12:28:45.870Z,3.73
2023-02-08T12:29:49.842Z,3.74
2023-02-08T12:30:53.837Z,3.78
2023-02-08T12:31:55.983Z,3.82
2023-02-08T12:32:58.422Z,3.86
2023-02-08T12:34:01.024Z,3.91
2023-02-08T12:36:09.532Z,3.96
2023-02-08T12:37:11.561Z,3.99
2023-02-08T12:38:14.023Z,3.97
2023-02-08T12:39:19.849Z,4.01
2023-02-08T12:40:18.789Z,4.02
2023-02-08T12:41:12.285Z,4.03
2023-02-08T12:41:21.168Z,4.01
2023-02-08T12:42:25.157Z,4.02
2023-02-08T12:43:27.449Z,4.03
2023-02-08T12:55:24.254Z,4.01
2023-02-08T13:09:36.391Z,4.1
2023-02-08T13:23:52.693Z,4.09
2023-02-08T13:37:59.911Z,4.15
2023-02-08T13:52:12.771Z,4.13
2023-02-08T14:06:21.046Z,4.16
2023-02-08T14:20:33.026Z,4.1
2023-02-08T14:34:44.249Z,4.06
2023-02-08T14:48:54.572Z,4.03
2023-02-08T15:03:07.042Z,3.94
2023-02-08T15:17:15.748Z,3.86
2023-02-08T15:31:28.401Z,3.73
2023-02-08T15:45:38.037Z,3.47
2023-02-08T15:59:47.288Z,3.16
2023-02-08T16:13:58.389Z,2.68
2023-02-08T16:28:07.011Z,2.11
2023-02-08T16:42:17.746Z,1.58
2023-02-08T16:56:26.315Z,0.89
2023-02-08T17:10:36.087Z,0.58
2023-02-08T17:24:46.954Z,0.47
2023-02-08T17:38:55.251Z,0.01
2023-02-08T17:53:06.956Z,-0.18
2023-02-08T18:07:15.123Z,-0.37
2023-02-08T18:21:25.074Z,-0.49
2023-02-08T18:35:34.909Z,-0.73
2023-02-08T18:49:47.654Z,-0.82
2023-02-08T19:03:54.128Z,-1.07
2023-02-08T19:18:04.397Z,-1.16
2023-02-08T19:32:15.766Z,-1.35
2023-02-08T19:46:23.317Z,-1.69
2023-02-08T20:00:33.615Z,-1.74
2023-02-08T20:14:43.327Z,-1.85
2023-02-08T20:28:54.605Z,-1.94
2023-02-08T20:43:04.459Z,-1.99
2023-02-08T20:57:16.065Z,-1.93
2023-02-08T21:11:25.195Z,-1.82
2023-02-08T21:25:39.178Z,-1.88
2023-02-08T21:39:47.407Z,-1.97
2023-02-08T21:53:55.465Z,-2.01
2023-02-08T22:08:08.457Z,-2.15
2023-02-08T22:22:16.561Z,-2.42
2023-02-08T22:36:26.124Z,-2.46
2023-02-08T22:50:37.479Z,-2.39
2023-02-08T23:04:47.758Z,-2.72
2023-02-08T23:18:57.454Z,-2.96
2023-02-08T23:33:06.630Z,-3.01
2023-02-08T23:47:18.124Z,-3.1
